Time;durP1;ratioP1;P1;durP2;ratioP2;P2;SDS_P1;SDS_P2;PMS_P1;PMS_P2;Temp;Humidity;BMP_temperature;BMP_pressure;BME280_temperature;BME280_humidity;BME280_pressure;Samples;Min_cycle;Max_cycle;Signal;HPM_P1;HPM_P2
2021/08/19 00:00:16;;;;;;;0.88;0.70;;;25.20;46.10;;;;;;5067813;28;20229;-76
2021/08/19 00:02:44;;;;;;;0.70;0.70;;;25.20;46.10;;;;;;5066941;28;20043;-76
2021/08/19 00:05:11;;;;;;;0.68;0.60;;;25.20;46.20;;;;;;5067984;28;20072;-75
2021/08/19 00:07:38;;;;;;;0.70;0.70;;;25.20;46.20;;;;;;5067647;28;20140;-76
2021/08/19 00:10:06;;;;;;;0.60;0.50;;;25.20;46.20;;;;;;5068051;28;20044;-76
2021/08/19 00:12:33;;;;;;;1.25;0.85;;;25.20;46.20;;;;;;5067349;28;20124;-76
2021/08/19 00:15:00;;;;;;;1.95;1.15;;;25.20;46.20;;;;;;5067878;28;20131;-76
2021/08/19 00:17:27;;;;;;;1.13;1.02;;;25.20;46.30;;;;;;5067641;28;20051;-76
2021/08/19 00:19:54;;;;;;;0.70;0.70;;;25.20;46.30;;;;;;5067525;28;20376;-76
2021/08/19 00:22:22;;;;;;;0.80;0.80;;;25.20;46.20;;;;;;5066311;28;20045;-76
2021/08/19 00:24:49;;;;;;;0.93;0.73;;;25.20;46.30;;;;;;5067178;28;20340;-76
2021/08/19 00:27:16;;;;;;;0.85;0.60;;;25.20;46.20;;;;;;5067630;28;20071;-77
2021/08/19 00:29:43;;;;;;;0.40;0.40;;;25.20;46.20;;;;;;5065572;28;20048;-76
2021/08/19 00:32:10;;;;;;;0.65;0.65;;;25.20;46.20;;;;;;5067320;28;20071;-75
2021/08/19 00:34:37;;;;;;;0.60;0.60;;;25.20;46.20;;;;;;5067292;28;20060;-75
2021/08/19 00:37:04;;;;;;;0.90;0.60;;;25.20;46.20;;;;;;5067653;28;20048;-76
2021/08/19 00:39:31;;;;;;;0.63;0.63;;;25.20;46.20;;;;;;5066470;28;20067;-76
2021/08/19 00:41:59;;;;;;;1.10;0.80;;;25.20;46.20;;;;;;5067012;28;20707;-76
2021/08/19 00:44:26;;;;;;;0.80;0.77;;;25.20;46.30;;;;;;5066735;28;20132;-76
2021/08/19 00:46:53;;;;;;;0.80;0.80;;;25.20;46.30;;;;;;5067428;28;20140;-76
2021/08/19 00:49:20;;;;;;;0.70;0.70;;;25.20;46.30;;;;;;5066694;28;20110;-76
2021/08/19 00:51:51;;;;;;;1.67;0.70;;;25.20;46.30;;;;;;5067012;28;20074;-76
2021/08/19 00:54:27;;;;;;;0.80;0.80;;;25.20;46.40;;;;;;5067099;28;20048;-75
2021/08/19 00:57:00;;;;;;;0.50;0.40;;;25.20;46.30;;;;;;5066522;28;20136;-76
2021/08/19 00:59:28;;;;;;;0.73;0.65;;;25.20;46.40;;;;;;5066395;28;20047;-76
2021/08/19 01:01:56;;;;;;;0.65;0.63;;;25.20;46.40;;;;;;5065372;28;20055;-76
2021/08/19 01:04:24;;;;;;;1.05;0.75;;;25.10;46.30;;;;;;5066475;28;20049;-76
2021/08/19 01:06:51;;;;;;;1.05;0.88;;;25.10;46.40;;;;;;5065588;28;20082;-75
2021/08/19 01:09:18;;;;;;;0.52;0.52;;;25.10;46.40;;;;;;5066532;28;20071;-76
2021/08/19 01:11:45;;;;;;;0.70;0.60;;;25.10;46.40;;;;;;5066805;28;20135;-75
2021/08/19 01:14:14;;;;;;;0.95;0.75;;;25.10;46.40;;;;;;5065625;28;20055;-76
2021/08/19 01:16:43;;;;;;;0.52;0.52;;;25.10;46.40;;;;;;5066314;28;20122;-76
2021/08/19 01:19:21;;;;;;;0.70;0.60;;;25.10;46.50;;;;;;5066754;28;20535;-77
2021/08/19 01:21:52;;;;;;;1.02;0.73;;;25.10;46.40;;;;;;5066758;28;20095;-76
2021/08/19 01:24:20;;;;;;;0.60;0.60;;;25.10;46.40;;;;;;5066072;28;20221;-76
2021/08/19 01:26:48;;;;;;;1.33;0.95;;;25.10;46.50;;;;;;5066695;28;20041;-75
2021/08/19 01:29:15;;;;;;;0.90;0.73;;;25.10;46.50;;;;;;5065873;28;20045;-75
2021/08/19 01:31:59;;;;;;;0.80;0.80;;;25.10;46.50;;;;;;5065902;28;20600;-76
2021/08/19 01:34:27;;;;;;;0.70;0.70;;;25.10;46.50;;;;;;5065843;28;20502;-77
2021/08/19 01:36:55;;;;;;;0.60;0.60;;;25.10;46.50;;;;;;5065832;28;20139;-75
2021/08/19 01:39:22;;;;;;;0.82;0.70;;;25.10;46.50;;;;;;5066003;28;20133;-76
2021/08/19 01:41:50;;;;;;;1.00;0.90;;;25.10;46.50;;;;;;5066124;28;20468;-76
2021/08/19 01:44:18;;;;;;;0.70;0.70;;;25.10;46.50;;;;;;5066260;28;20044;-76
2021/08/19 01:46:59;;;;;;;0.70;0.70;;;25.10;46.50;;;;;;5065579;28;20127;-76
2021/08/19 01:49:27;;;;;;;0.60;0.55;;;25.10;46.50;;;;;;5066478;28;20048;-76
2021/08/19 01:51:55;;;;;;;0.82;0.60;;;25.10;46.50;;;;;;5065718;28;20072;-76
2021/08/19 01:54:25;;;;;;;0.88;0.77;;;25.10;46.40;;;;;;5066029;28;20127;-75
2021/08/19 01:56:53;;;;;;;;;;;25.10;46.40;;;;;;5066194;28;20044;-76
2021/08/19 01:59:20;;;;;;;0.73;0.73;;;25.10;46.40;;;;;;5065835;28;20391;-75
2021/08/19 02:01:47;;;;;;;0.65;0.65;;;25.10;46.50;;;;;;5065669;28;20067;-76
2021/08/19 02:04:14;;;;;;;0.60;0.60;;;25.10;46.50;;;;;;5066242;28;20098;-76
2021/08/19 02:06:41;;;;;;;0.68;0.68;;;25.10;46.50;;;;;;5065487;28;20048;-76
2021/08/19 02:09:08;;;;;;;0.50;0.50;;;25.10;46.50;;;;;;5065568;28;20498;-76
2021/08/19 02:11:38;;;;;;;0.55;0.55;;;25.10;46.60;;;;;;5064531;28;20535;-76
2021/08/19 02:14:06;;;;;;;0.50;0.50;;;25.10;46.60;;;;;;5065852;28;20365;-76
2021/08/19 02:16:33;;;;;;;0.70;0.70;;;25.10;46.60;;;;;;5065407;28;20232;-76
2021/08/19 02:19:01;;;;;;;0.73;0.73;;;25.10;46.60;;;;;;5064520;28;20045;-76
2021/08/19 02:21:28;;;;;;;0.77;0.55;;;25.10;46.60;;;;;;5065562;28;20063;-75
2021/08/19 02:23:55;;;;;;;0.60;0.60;;;25.10;46.60;;;;;;5065235;28;20127;-75
2021/08/19 02:26:22;;;;;;;0.60;0.60;;;25.10;46.60;;;;;;5067519;28;20055;-75
2021/08/19 02:28:49;;;;;;;0.70;0.70;;;25.10;46.60;;;;;;5069621;28;20331;-76
2021/08/19 02:31:16;;;;;;;0.75;0.63;;;25.10;46.70;;;;;;5068951;28;20139;-76
2021/08/19 02:33:43;;;;;;;0.98;0.70;;;25.10;46.70;;;;;;5070020;28;20046;-76
2021/08/19 02:36:10;;;;;;;0.70;0.70;;;25.10;46.70;;;;;;5067950;28;20131;-76
2021/08/19 02:38:37;;;;;;;0.70;0.70;;;25.10;46.70;;;;;;5069670;28;20492;-76
2021/08/19 02:41:05;;;;;;;0.70;0.70;;;25.10;46.70;;;;;;5069116;28;20915;-75
2021/08/19 02:43:34;;;;;;;0.70;0.55;;;25.10;46.70;;;;;;5069365;28;20044;-76
2021/08/19 02:46:01;;;;;;;0.85;0.85;;;25.10;46.70;;;;;;5069512;28;20149;-75
2021/08/19 02:48:28;;;;;;;1.15;0.77;;;25.10;46.70;;;;;;5068060;28;20083;-75
2021/08/19 02:50:55;;;;;;;0.75;0.75;;;25.10;46.70;;;;;;5068874;28;20493;-75
2021/08/19 02:53:22;;;;;;;0.70;0.70;;;25.10;46.70;;;;;;5069093;28;20128;-75
2021/08/19 02:55:49;;;;;;;0.82;0.55;;;25.10;46.70;;;;;;5068710;28;20044;-76
2021/08/19 02:58:16;;;;;;;0.70;0.52;;;25.10;46.60;;;;;;5069306;28;20119;-75
2021/08/19 03:00:43;;;;;;;0.47;0.43;;;25.10;46.60;;;;;;5068542;28;20326;-75
2021/08/19 03:03:11;;;;;;;0.50;0.50;;;25.10;46.60;;;;;;5069747;28;20056;-75
2021/08/19 03:05:38;;;;;;;0.85;0.70;;;25.10;46.60;;;;;;5069055;28;20551;-76
2021/08/19 03:08:05;;;;;;;0.50;0.50;;;25.10;46.60;;;;;;5068845;28;20135;-76
2021/08/19 03:10:32;;;;;;;0.73;0.73;;;25.10;46.60;;;;;;5068597;28;20135;-76
2021/08/19 03:12:59;;;;;;;0.70;0.70;;;25.10;46.60;;;;;;5068571;28;20051;-75
2021/08/19 03:15:26;;;;;;;0.60;0.60;;;25.10;46.60;;;;;;5069497;28;20148;-76
2021/08/19 03:17:53;;;;;;;0.82;0.63;;;25.10;46.60;;;;;;5069355;28;20041;-76
2021/08/19 03:20:21;;;;;;;0.85;0.60;;;25.10;46.50;;;;;;5067461;28;20120;-75
2021/08/19 03:22:50;;;;;;;0.60;0.60;;;25.10;46.50;;;;;;5068924;28;20665;-76
2021/08/19 03:25:19;;;;;;;0.73;0.50;;;25.10;46.60;;;;;;5068046;28;20067;-75
2021/08/19 03:27:46;;;;;;;0.70;0.70;;;25.10;46.50;;;;;;5068592;28;20127;-76
2021/08/19 03:30:13;;;;;;;0.88;0.52;;;25.10;46.60;;;;;;5068207;28;20052;-76
2021/08/19 03:32:40;;;;;;;0.88;0.45;;;25.10;46.60;;;;;;5067981;28;20049;-75
2021/08/19 03:35:10;;;;;;;0.60;0.50;;;25.10;47.20;;;;;;5067155;28;20052;-76
2021/08/19 03:37:40;;;;;;;0.50;0.50;;;25.10;46.70;;;;;;5067169;28;20040;-75
2021/08/19 03:40:08;;;;;;;0.50;0.50;;;25.10;46.70;;;;;;5068597;28;20276;-76
2021/08/19 03:42:37;;;;;;;1.05;0.70;;;25.10;46.70;;;;;;5067225;28;20044;-75
2021/08/19 03:45:06;;;;;;;0.40;0.40;;;25.10;46.70;;;;;;5068000;28;20080;-76
2021/08/19 03:47:33;;;;;;;0.60;0.60;;;25.10;46.70;;;;;;5068351;28;20131;-76
2021/08/19 03:50:00;;;;;;;0.40;0.40;;;25.10;46.80;;;;;;5068205;28;20120;-76
2021/08/19 03:52:28;;;;;;;0.38;0.38;;;25.10;47.30;;;;;;5066402;28;20044;-76
2021/08/19 03:54:55;;;;;;;0.52;0.52;;;25.10;46.80;;;;;;5067528;28;20051;-76
2021/08/19 03:57:22;;;;;;;0.57;0.57;;;25.10;46.80;;;;;;5067704;28;20219;-76
2021/08/19 03:59:49;;;;;;;0.50;0.50;;;25.10;46.80;;;;;;5067972;28;20508;-76
2021/08/19 04:02:16;;;;;;;0.52;0.52;;;25.10;46.80;;;;;;5067301;28;20048;-76
2021/08/19 04:04:43;;;;;;;0.85;0.60;;;25.10;46.70;;;;;;5068170;28;20051;-75
2021/08/19 04:07:10;;;;;;;0.65;0.50;;;25.10;46.70;;;;;;5067867;28;20190;-76
2021/08/19 04:09:38;;;;;;;0.50;0.50;;;25.10;46.80;;;;;;5067654;28;20127;-75
2021/08/19 04:12:05;;;;;;;0.50;0.50;;;25.10;46.70;;;;;;5067618;28;20329;-76
2021/08/19 04:14:32;;;;;;;0.55;0.52;;;25.10;46.70;;;;;;5067900;28;20076;-75
2021/08/19 04:16:59;;;;;;;0.55;0.45;;;25.10;46.70;;;;;;5067356;28;20535;-76
2021/08/19 04:19:26;;;;;;;0.68;0.68;;;25.10;46.70;;;;;;5067642;28;20044;-75
2021/08/19 04:21:53;;;;;;;0.60;0.60;;;25.10;46.70;;;;;;5067233;28;20291;-76
2021/08/19 04:24:20;;;;;;;0.65;0.50;;;25.10;46.60;;;;;;5067290;28;20063;-76
2021/08/19 04:26:47;;;;;;;0.40;0.40;;;25.20;46.60;;;;;;5067275;28;20173;-75
2021/08/19 04:29:14;;;;;;;0.43;0.43;;;25.20;46.50;;;;;;5066887;28;20472;-75
2021/08/19 04:31:41;;;;;;;0.52;0.40;;;25.20;46.50;;;;;;5065667;28;20257;-75
2021/08/19 04:34:09;;;;;;;0.65;0.65;;;25.20;46.40;;;;;;5067275;28;20040;-76
2021/08/19 04:36:36;;;;;;;0.98;0.60;;;25.30;46.50;;;;;;5057997;28;20272;-76
2021/08/19 04:39:03;;;;;;;0.60;0.60;;;25.30;46.40;;;;;;5054193;28;20132;-75
2021/08/19 04:41:30;;;;;;;0.40;0.40;;;25.30;46.40;;;;;;5054744;28;20091;-75
2021/08/19 04:43:57;;;;;;;0.60;0.57;;;25.30;46.30;;;;;;5048796;28;20049;-76
2021/08/19 04:46:25;;;;;;;0.60;0.60;;;25.30;46.30;;;;;;5057922;28;20045;-76
2021/08/19 04:48:52;;;;;;;1.15;0.52;;;25.40;46.30;;;;;;5052339;28;20048;-75
2021/08/19 04:51:19;;;;;;;0.65;0.65;;;25.40;46.20;;;;;;5053142;28;20131;-75
2021/08/19 04:53:46;;;;;;;0.68;0.68;;;25.40;46.20;;;;;;5052815;28;20695;-76
2021/08/19 04:56:13;;;;;;;0.85;0.85;;;25.40;46.20;;;;;;5054996;28;20048;-76
2021/08/19 04:58:40;;;;;;;1.40;0.60;;;25.40;46.20;;;;;;5059418;28;20580;-75
2021/08/19 05:01:07;;;;;;;0.40;0.40;;;25.40;46.20;;;;;;5058667;28;20033;-76
2021/08/19 05:03:34;;;;;;;0.60;0.50;;;25.40;46.20;;;;;;5045626;28;20143;-76
2021/08/19 05:06:01;;;;;;;0.50;0.40;;;25.40;46.10;;;;;;5046248;28;20044;-76
2021/08/19 05:08:28;;;;;;;0.73;0.73;;;25.40;46.10;;;;;;5045278;28;20053;-75
2021/08/19 05:10:55;;;;;;;0.50;0.50;;;25.40;46.20;;;;;;5044876;28;20132;-75
2021/08/19 05:13:23;;;;;;;0.43;0.43;;;25.30;46.10;;;;;;5044422;28;20064;-75
2021/08/19 05:15:50;;;;;;;1.00;0.60;;;25.30;46.20;;;;;;5043900;28;20037;-71
2021/08/19 05:18:17;;;;;;;2.17;0.65;;;25.20;46.20;;;;;;5054645;28;20098;-73
2021/08/19 05:20:44;;;;;;;0.60;0.60;;;25.10;46.40;;;;;;5055487;28;20144;-73
2021/08/19 05:23:11;;;;;;;0.73;0.68;;;25.10;46.70;;;;;;5063960;28;20047;-72
2021/08/19 05:25:38;;;;;;;0.52;0.52;;;25.00;47.00;;;;;;5050896;28;20062;-74
2021/08/19 05:28:06;;;;;;;0.52;0.50;;;24.80;47.30;;;;;;5063071;28;20128;-72
2021/08/19 05:30:33;;;;;;;2.40;0.75;;;24.70;47.70;;;;;;5048554;28;20151;-72
2021/08/19 05:33:00;;;;;;;1.42;1.00;;;24.50;48.00;;;;;;5052985;28;20055;-73
2021/08/19 05:35:28;;;;;;;1.95;0.70;;;24.40;48.40;;;;;;5050335;28;20043;-71
2021/08/19 05:37:55;;;;;;;0.85;0.85;;;24.30;48.80;;;;;;5053110;28;20443;-73
2021/08/19 05:40:22;;;;;;;0.90;0.90;;;24.10;49.20;;;;;;5054446;28;20447;-72
2021/08/19 05:42:49;;;;;;;1.40;1.15;;;24.00;49.50;;;;;;5059485;28;20449;-73
2021/08/19 05:45:17;;;;;;;1.58;0.80;;;23.80;49.70;;;;;;5057489;28;20052;-72
2021/08/19 05:47:44;;;;;;;0.95;0.73;;;23.70;50.10;;;;;;5052800;28;21025;-75
2021/08/19 05:50:11;;;;;;;0.75;0.70;;;23.70;50.40;;;;;;5052930;28;20052;-74
2021/08/19 05:52:40;;;;;;;1.23;1.00;;;23.60;50.40;;;;;;5060163;28;20080;-71
2021/08/19 05:55:07;;;;;;;2.45;0.95;;;23.50;50.70;;;;;;5051552;28;20137;-72
2021/08/19 05:57:34;;;;;;;1.55;1.08;;;23.40;50.90;;;;;;5054667;28;20144;-76
2021/08/19 06:00:03;;;;;;;2.05;1.30;;;23.40;50.90;;;;;;5053738;28;20080;-78
2021/08/19 06:02:30;;;;;;;4.25;1.20;;;23.30;51.00;;;;;;5057142;28;20106;-74
2021/08/19 06:04:59;;;;;;;5.30;1.10;;;23.20;51.30;;;;;;5052569;28;20127;-74
2021/08/19 06:07:26;;;;;;;1.08;1.02;;;23.10;51.20;;;;;;5054478;28;20259;-74
2021/08/19 06:09:53;;;;;;;1.92;1.05;;;23.10;51.30;;;;;;5051201;28;20070;-67
2021/08/19 06:12:20;;;;;;;1.80;1.58;;;23.10;51.70;;;;;;5052061;28;20075;-66
2021/08/19 06:14:47;;;;;;;6.68;1.67;;;23.00;51.70;;;;;;5050141;28;20087;-66
2021/08/19 06:17:15;;;;;;;1.58;1.40;;;23.00;51.40;;;;;;5049917;28;20053;-64
2021/08/19 06:19:42;;;;;;;2.13;1.90;;;23.00;51.30;;;;;;5052992;28;20159;-65
2021/08/19 06:22:09;;;;;;;3.63;1.75;;;22.90;51.50;;;;;;5055491;28;20051;-65
2021/08/19 06:24:36;;;;;;;7.88;2.00;;;23.00;51.50;;;;;;5050638;28;20496;-65
2021/08/19 06:27:03;;;;;;;3.83;2.15;;;22.90;51.50;;;;;;5058458;28;20536;-66
2021/08/19 06:29:31;;;;;;;2.95;1.65;;;22.90;51.80;;;;;;5054648;28;20148;-66
2021/08/19 06:31:59;;;;;;;6.07;1.73;;;22.90;51.90;;;;;;5048800;28;20079;-64
2021/08/19 06:34:26;;;;;;;6.03;2.08;;;22.90;51.80;;;;;;5049161;28;20091;-65
2021/08/19 06:36:53;;;;;;;1.60;1.50;;;22.90;51.80;;;;;;5054469;28;20063;-64
2021/08/19 06:39:20;;;;;;;2.85;1.67;;;22.90;52.00;;;;;;5056250;28;20041;-64
2021/08/19 06:41:48;;;;;;;5.00;2.20;;;22.80;51.80;;;;;;5051713;28;20037;-64
2021/08/19 06:44:15;;;;;;;2.33;1.70;;;22.80;52.40;;;;;;5052879;28;20068;-65
2021/08/19 06:46:42;;;;;;;2.95;2.05;;;22.80;52.00;;;;;;5060058;28;20083;-64
2021/08/19 06:49:09;;;;;;;4.00;1.67;;;22.80;52.00;;;;;;5053212;28;20114;-65
2021/08/19 06:51:36;;;;;;;4.47;1.55;;;22.80;51.80;;;;;;5051046;28;20068;-66
2021/08/19 06:54:04;;;;;;;3.33;2.28;;;22.80;52.10;;;;;;5049116;28;20131;-66
2021/08/19 06:56:31;;;;;;;2.70;1.55;;;22.80;52.20;;;;;;5053333;28;20502;-64
2021/08/19 06:58:59;;;;;;;2.60;1.85;;;22.80;52.00;;;;;;5043478;28;20505;-66
2021/08/19 07:01:26;;;;;;;4.03;1.35;;;22.80;52.10;;;;;;5047661;28;20081;-69
2021/08/19 07:03:53;;;;;;;1.60;1.50;;;22.90;52.40;;;;;;5050411;28;20045;-69
2021/08/19 07:06:21;;;;;;;2.75;1.98;;;22.80;52.30;;;;;;5050582;28;20140;-66
2021/08/19 07:08:48;;;;;;;3.88;1.92;;;22.90;52.20;;;;;;5050694;28;20075;-64
2021/08/19 07:11:15;;;;;;;7.72;1.95;;;22.90;52.40;;;;;;5052714;28;20131;-64
2021/08/19 07:13:43;;;;;;;2.70;1.65;;;22.90;52.40;;;;;;5056918;28;20098;-64
2021/08/19 07:16:10;;;;;;;2.13;1.55;;;22.90;52.10;;;;;;5054875;28;20055;-63
2021/08/19 07:18:38;;;;;;;1.85;1.35;;;22.90;52.10;;;;;;5068069;28;20048;-65
2021/08/19 07:21:05;;;;;;;4.05;1.98;;;23.00;52.20;;;;;;5056808;28;20056;-70
2021/08/19 07:23:32;;;;;;;2.15;1.52;;;22.90;52.10;;;;;;5052648;28;20059;-69
2021/08/19 07:25:59;;;;;;;2.95;1.42;;;23.00;52.10;;;;;;5061917;28;20048;-70
2021/08/19 07:28:27;;;;;;;3.10;1.45;;;22.90;52.40;;;;;;5061060;28;20040;-72
2021/08/19 07:30:54;;;;;;;5.28;2.00;;;22.90;52.50;;;;;;5064164;28;20397;-71
2021/08/19 07:33:21;;;;;;;3.67;1.70;;;22.90;52.40;;;;;;5062795;28;20046;-70
2021/08/19 07:35:49;;;;;;;3.42;1.45;;;22.90;52.60;;;;;;5054712;28;20083;-72
2021/08/19 07:38:18;;;;;;;2.50;1.80;;;22.90;52.90;;;;;;5054427;28;20123;-71
2021/08/19 07:40:47;;;;;;;1.50;1.40;;;22.90;52.80;;;;;;5058591;28;20041;-72
2021/08/19 07:43:15;;;;;;;1.90;1.40;;;22.90;52.80;;;;;;5054543;28;20072;-72
2021/08/19 07:45:42;;;;;;;1.95;1.45;;;22.90;52.90;;;;;;5057949;28;20044;-72
2021/08/19 07:48:11;;;;;;;2.28;1.50;;;22.90;52.80;;;;;;5054369;28;20078;-74
2021/08/19 07:50:39;;;;;;;2.08;1.27;;;22.90;52.60;;;;;;5060931;28;20058;-76
2021/08/19 07:53:06;;;;;;;2.28;1.52;;;22.90;52.70;;;;;;5052715;28;20080;-76
2021/08/19 07:55:34;;;;;;;2.67;1.17;;;22.90;52.60;;;;;;5056062;28;20478;-76
2021/08/19 07:58:01;;;;;;;2.83;1.75;;;22.90;52.40;;;;;;5057672;28;20461;-77
2021/08/19 08:00:31;;;;;;;1.75;1.25;;;22.90;52.40;;;;;;5053650;28;20099;-78
2021/08/19 08:02:59;;;;;;;1.75;1.20;;;22.90;52.40;;;;;;5056294;28;20053;-77
2021/08/19 08:05:33;;;;;;;1.42;1.20;;;22.90;52.30;;;;;;5056037;28;20504;-76
2021/08/19 08:08:03;;;;;;;1.27;1.17;;;22.90;52.20;;;;;;5055853;28;20041;-76
2021/08/19 08:10:31;;;;;;;1.48;1.33;;;23.00;52.50;;;;;;5056743;28;20087;-78
2021/08/19 08:12:58;;;;;;;1.20;1.10;;;23.00;52.50;;;;;;5053670;28;20076;-77
2021/08/19 08:15:26;;;;;;;2.90;1.17;;;23.00;52.40;;;;;;5061591;28;20127;-77
2021/08/19 08:17:53;;;;;;;2.38;1.25;;;23.00;52.30;;;;;;5058778;28;20416;-77
2021/08/19 08:20:21;;;;;;;1.33;1.02;;;23.10;52.30;;;;;;5052804;28;20499;-77
2021/08/19 08:22:50;;;;;;;1.42;1.23;;;23.10;52.10;;;;;;5066033;28;20453;-77
2021/08/19 08:25:19;;;;;;;2.08;1.17;;;23.10;52.00;;;;;;5049925;28;20045;-77
2021/08/19 08:28:04;;;;;;;2.08;1.45;;;23.10;51.90;;;;;;5056689;28;20090;-77
2021/08/19 08:30:33;;;;;;;1.45;1.02;;;23.10;51.80;;;;;;5055906;28;20450;-73
2021/08/19 08:33:00;;;;;;;1.77;1.38;;;23.20;51.80;;;;;;5063285;28;20045;-72
2021/08/19 08:35:30;;;;;;;2.15;1.35;;;23.20;51.80;;;;;;5053728;28;20627;-72
2021/08/19 08:37:58;;;;;;;;;;;23.20;52.00;;;;;;5037697;28;20072;-73
2021/08/19 08:40:27;;;;;;;2.28;1.25;;;23.30;52.00;;;;;;5053366;28;19926;-72
2021/08/19 08:42:55;;;;;;;2.20;1.55;;;23.30;51.80;;;;;;5055493;28;20474;-69
2021/08/19 08:45:24;;;;;;;3.17;1.60;;;23.40;51.70;;;;;;5061639;28;20079;-70
2021/08/19 08:47:51;;;;;;;3.13;1.58;;;23.40;51.60;;;;;;5064597;28;20048;-76
2021/08/19 08:50:19;;;;;;;2.00;1.40;;;23.40;51.60;;;;;;5055893;28;20572;-75
2021/08/19 08:52:46;;;;;;;4.32;1.50;;;23.50;51.50;;;;;;5055058;28;20484;-75
2021/08/19 08:55:13;;;;;;;1.75;1.35;;;23.50;51.40;;;;;;5053349;28;20110;-74
2021/08/19 08:57:41;;;;;;;1.83;1.40;;;23.50;51.20;;;;;;5052927;28;20494;-75
2021/08/19 09:00:08;;;;;;;2.78;2.00;;;23.60;51.20;;;;;;5053458;28;20440;-72
2021/08/19 09:02:36;;;;;;;1.98;1.50;;;23.60;51.60;;;;;;5056476;28;20513;-76
2021/08/19 09:05:22;;;;;;;2.22;1.90;;;23.60;51.50;;;;;;5059325;28;20075;-73
2021/08/19 09:07:53;;;;;;;1.98;1.65;;;23.60;51.40;;;;;;5051121;28;20064;-77
2021/08/19 09:10:26;;;;;;;1.80;1.63;;;23.70;51.30;;;;;;5056778;28;20073;-78
2021/08/19 09:12:54;;;;;;;3.25;1.48;;;23.70;51.10;;;;;;5059199;28;20124;-77
2021/08/19 09:15:24;;;;;;;4.30;1.85;;;23.70;51.10;;;;;;5045683;28;20051;-75
2021/08/19 09:17:53;;;;;;;1.77;1.67;;;23.70;51.00;;;;;;5049675;28;20563;-76
2021/08/19 09:20:30;;;;;;;1.85;1.50;;;23.70;50.90;;;;;;5056238;28;20386;-76
2021/08/19 09:23:03;;;;;;;4.28;1.48;;;23.70;50.80;;;;;;5054247;28;20646;-77
2021/08/19 09:25:38;;;;;;;3.40;1.35;;;23.70;50.80;;;;;;5062307;28;20044;-76
2021/08/19 09:28:23;;;;;;;2.50;1.73;;;23.70;50.80;;;;;;5044895;28;20052;-77
2021/08/19 09:30:54;;;;;;;2.10;1.65;;;23.70;51.00;;;;;;5049019;28;20127;-77
2021/08/19 09:33:30;;;;;;;1.42;1.33;;;23.70;51.00;;;;;;5055049;28;20131;-75
2021/08/19 09:35:59;;;;;;;3.20;1.48;;;23.60;51.00;;;;;;5050052;28;20045;-76
2021/08/19 09:38:41;;;;;;;2.03;1.63;;;23.60;51.10;;;;;;5058345;28;20706;-77
2021/08/19 09:41:20;;;;;;;5.30;1.52;;;23.60;51.10;;;;;;5051649;28;20520;-76
2021/08/19 09:43:50;;;;;;;3.30;1.75;;;23.60;51.10;;;;;;5051348;28;20043;-75
2021/08/19 09:46:35;;;;;;;1.63;1.52;;;23.60;51.10;;;;;;5055723;28;20471;-75
2021/08/19 09:49:20;;;;;;;1.67;1.25;;;23.60;51.00;;;;;;5053983;28;20071;-73
2021/08/19 09:52:08;;;;;;;1.20;1.10;;;23.60;50.90;;;;;;5050916;28;20063;-73
2021/08/19 09:54:37;;;;;;;1.98;1.25;;;23.50;50.70;;;;;;5052593;28;20040;-76
2021/08/19 09:57:06;;;;;;;1.53;1.10;;;23.50;50.60;;;;;;5052985;28;20079;-76
2021/08/19 09:59:38;;;;;;;1.42;1.05;;;23.50;50.70;;;;;;5052606;28;20129;-74
2021/08/19 10:02:07;;;;;;;2.33;1.15;;;23.50;50.70;;;;;;5051681;28;20045;-73
2021/08/19 10:04:35;;;;;;;2.55;1.60;;;23.50;50.60;;;;;;5050123;28;20049;-74
2021/08/19 10:07:03;;;;;;;1.42;1.23;;;23.50;50.40;;;;;;5053102;28;20069;-73
2021/08/19 10:09:31;;;;;;;1.63;1.17;;;23.50;50.30;;;;;;5054088;28;20135;-73
2021/08/19 10:11:59;;;;;;;1.88;1.25;;;23.60;50.20;;;;;;5049734;28;20080;-73
2021/08/19 10:14:29;;;;;;;1.52;1.20;;;23.60;50.10;;;;;;5054174;28;20483;-73
2021/08/19 10:16:57;;;;;;;1.33;0.98;;;23.60;50.00;;;;;;5056096;28;20055;-73
2021/08/19 10:19:36;;;;;;;1.98;1.13;;;23.60;49.80;;;;;;5056681;28;20037;-73
2021/08/19 10:22:11;;;;;;;2.03;1.17;;;23.60;49.70;;;;;;5052602;28;20148;-72
2021/08/19 10:24:42;;;;;;;1.90;1.10;;;23.60;49.50;;;;;;5052091;28;20045;-72
2021/08/19 10:27:18;;;;;;;1.20;1.10;;;23.60;49.40;;;;;;5052736;28;20495;-72
2021/08/19 10:29:49;;;;;;;1.67;0.88;;;23.60;49.40;;;;;;5062323;28;20045;-72
2021/08/19 10:32:27;;;;;;;1.45;1.08;;;23.60;49.30;;;;;;5051379;28;20049;-74
2021/08/19 10:35:09;;;;;;;1.20;1.10;;;23.60;49.30;;;;;;5050127;28;20049;-74
2021/08/19 10:38:00;;;;;;;1.50;1.33;;;23.60;49.40;;;;;;5054894;28;20118;-72
2021/08/19 10:40:39;;;;;;;1.27;1.17;;;23.50;49.40;;;;;;5054469;28;20044;-73
2021/08/19 10:43:37;;;;;;;1.60;1.08;;;23.50;49.40;;;;;;5048238;28;20255;-73
2021/08/19 10:46:10;;;;;;;1.27;0.93;;;23.50;49.30;;;;;;5049477;28;20124;-73
2021/08/19 10:48:44;;;;;;;0.98;0.90;;;23.60;49.40;;;;;;5059262;28;20135;-73
2021/08/19 10:51:11;;;;;;;1.05;0.95;;;23.50;49.80;;;;;;5055487;28;20044;-73
2021/08/19 10:53:39;;;;;;;0.90;0.90;;;23.60;49.30;;;;;;5057193;28;20048;-73
2021/08/19 10:56:07;;;;;;;1.77;1.15;;;23.60;49.30;;;;;;5056042;28;20049;-71
2021/08/19 10:58:36;;;;;;;2.60;1.20;;;23.60;49.30;;;;;;5057183;28;20045;-70
2021/08/19 11:01:23;;;;;;;1.30;1.20;;;23.60;49.80;;;;;;5057163;28;20041;-72
2021/08/19 11:03:53;;;;;;;1.15;1.05;;;23.60;49.10;;;;;;5052943;28;20041;-71
2021/08/19 11:06:44;;;;;;;1.10;0.90;;;23.70;49.10;;;;;;5057114;28;20559;-72
2021/08/19 11:09:17;;;;;;;1.10;1.00;;;23.70;48.90;;;;;;5058550;28;20525;-73
2021/08/19 11:11:44;;;;;;;1.20;0.75;;;23.80;48.80;;;;;;5058081;28;20117;-74
2021/08/19 11:14:14;;;;;;;1.02;0.88;;;23.80;48.70;;;;;;5058384;28;20057;-74
2021/08/19 11:16:43;;;;;;;1.15;1.05;;;23.80;48.60;;;;;;5057925;28;20041;-73
2021/08/19 11:19:18;;;;;;;0.82;0.68;;;23.80;48.60;;;;;;5058390;28;20139;-73
2021/08/19 11:21:53;;;;;;;1.77;1.17;;;23.80;48.50;;;;;;5059984;28;21501;-72
2021/08/19 11:24:20;;;;;;;1.02;0.82;;;23.80;48.50;;;;;;5056415;28;20124;-71
2021/08/19 11:27:07;;;;;;;1.60;0.90;;;23.80;48.50;;;;;;5056679;28;20187;-72
2021/08/19 11:29:43;;;;;;;1.08;0.85;;;23.80;48.70;;;;;;5066953;28;20093;-73
2021/08/19 11:32:30;;;;;;;0.85;0.70;;;23.80;48.90;;;;;;5063801;28;20053;-73
2021/08/19 11:34:57;;;;;;;0.68;0.60;;;23.80;48.90;;;;;;5057590;28;20135;-72
2021/08/19 11:37:31;;;;;;;1.58;0.70;;;23.90;48.80;;;;;;5054825;28;20053;-72
2021/08/19 11:39:59;;;;;;;0.65;0.65;;;23.90;48.80;;;;;;5056730;28;20132;-73
2021/08/19 11:42:29;;;;;;;1.40;1.00;;;23.90;48.90;;;;;;5052519;28;20072;-70
2021/08/19 11:45:20;;;;;;;1.20;0.90;;;23.90;48.90;;;;;;5055794;28;20040;-72
2021/08/19 11:47:50;;;;;;;1.13;0.88;;;23.90;48.90;;;;;;5055402;28;20080;-72
2021/08/19 11:50:22;;;;;;;1.15;0.75;;;23.90;48.80;;;;;;5051860;28;20179;-69
2021/08/19 11:52:49;;;;;;;1.20;0.98;;;23.90;48.70;;;;;;5052713;28;20041;-69
2021/08/19 11:55:32;;;;;;;1.05;0.80;;;23.90;48.80;;;;;;5060272;28;20052;-70
2021/08/19 11:58:19;;;;;;;0.80;0.80;;;23.90;48.80;;;;;;5054259;28;20043;-71
2021/08/19 12:01:03;;;;;;;0.80;0.80;;;23.90;48.90;;;;;;5056038;28;20449;-68
2021/08/19 12:03:32;;;;;;;2.20;0.90;;;23.90;49.00;;;;;;5063962;28;20044;-73
2021/08/19 12:06:01;;;;;;;1.00;0.90;;;23.90;48.90;;;;;;5062598;28;20065;-73
2021/08/19 12:08:30;;;;;;;2.03;0.70;;;23.90;48.70;;;;;;5052037;28;20091;-74
2021/08/19 12:10:59;;;;;;;0.82;0.80;;;23.90;48.60;;;;;;5058389;28;20091;-73
2021/08/19 12:13:28;;;;;;;1.37;1.17;;;23.90;48.40;;;;;;5056448;28;20055;-70
2021/08/19 12:15:56;;;;;;;0.65;0.63;;;23.90;48.30;;;;;;5054171;28;20143;-74
2021/08/19 12:18:24;;;;;;;0.98;0.88;;;23.90;48.20;;;;;;5060633;28;20119;-74
2021/08/19 12:21:12;;;;;;;1.58;0.73;;;24.00;48.10;;;;;;5069301;28;20044;-74
2021/08/19 12:23:40;;;;;;;0.63;0.63;;;24.00;47.90;;;;;;5055977;28;20357;-74
2021/08/19 12:26:09;;;;;;;1.17;0.68;;;24.00;47.80;;;;;;5053220;28;20513;-74
2021/08/19 12:28:37;;;;;;;2.22;0.80;;;24.00;47.70;;;;;;5062000;28;20460;-74
2021/08/19 12:31:09;;;;;;;0.77;0.77;;;23.90;47.70;;;;;;5051553;28;20120;-74
2021/08/19 12:33:39;;;;;;;0.98;0.93;;;23.90;47.70;;;;;;5056182;28;20084;-74
2021/08/19 12:36:19;;;;;;;1.00;0.88;;;23.90;47.70;;;;;;5050553;28;20131;-74
2021/08/19 12:38:49;;;;;;;0.93;0.93;;;24.00;47.80;;;;;;5060068;28;20509;-71
2021/08/19 12:41:19;;;;;;;1.58;0.80;;;23.90;47.70;;;;;;5057820;28;20076;-73
2021/08/19 12:44:02;;;;;;;1.15;0.65;;;23.90;48.30;;;;;;5054713;28;20395;-72
2021/08/19 12:46:42;;;;;;;1.45;0.93;;;23.90;48.30;;;;;;5054988;28;20036;-72
2021/08/19 12:49:28;;;;;;;3.88;0.85;;;24.00;48.30;;;;;;5056516;28;20363;-73
2021/08/19 12:52:19;;;;;;;1.10;1.00;;;24.00;48.30;;;;;;5059076;28;20549;-73
2021/08/19 12:55:01;;;;;;;0.80;0.80;;;24.00;48.10;;;;;;5050269;28;20525;-73
2021/08/19 12:57:38;;;;;;;2.72;0.95;;;24.00;47.90;;;;;;5044647;28;20144;-72
2021/08/19 13:00:13;;;;;;;2.08;0.80;;;24.10;47.90;;;;;;5046305;28;20292;-73